Time;durP1;ratioP1;P1;durP2;ratioP2;P2;SDS_P1;SDS_P2;PMS_P1;PMS_P2;Temp;Humidity;BMP_temperature;BMP_pressure;BME280_temperature;BME280_humidity;BME280_pressure;Samples;Min_cycle;Max_cycle;Signal;HPM_P1;HPM_P2
2022/11/03 00:02:13;;;;;;;18.27;4.10;;;6.00;99.90;;;5.95;100.00;100591.19;5010266;28;20230;-85
2022/11/03 00:04:40;;;;;;;19.67;4.45;;;5.90;99.90;;;6.02;100.00;100607.19;5022083;28;20231;-84
2022/11/03 00:07:07;;;;;;;22.88;5.18;;;5.90;99.90;;;6.03;100.00;100600.19;5021828;28;20285;-85
2022/11/03 00:09:34;;;;;;;18.02;4.15;;;6.00;99.90;;;5.96;100.00;100600.84;5022057;28;20310;-84
2022/11/03 00:12:02;;;;;;;16.08;3.72;;;5.90;99.90;;;6.00;100.00;100600.09;5005755;28;20266;-84
2022/11/03 00:14:29;;;;;;;16.35;3.90;;;6.00;99.90;;;6.01;100.00;100597.53;5028428;28;20261;-85
2022/11/03 00:16:56;;;;;;;15.93;4.13;;;6.00;99.90;;;6.03;100.00;100595.81;5030811;28;20329;-85
2022/11/03 00:19:23;;;;;;;17.75;4.05;;;6.00;99.90;;;6.09;100.00;100603.00;5047852;28;20230;-85
2022/11/03 00:21:51;;;;;;;15.70;3.67;;;6.00;99.90;;;6.10;100.00;100595.16;5047608;28;20268;-84
2022/11/03 00:24:18;;;;;;;19.70;4.13;;;6.10;99.90;;;6.11;100.00;100601.31;5031878;28;20242;-85
2022/11/03 00:26:45;;;;;;;21.70;4.63;;;6.00;99.90;;;6.05;100.00;100596.75;5025648;28;20247;-84
2022/11/03 00:29:13;;;;;;;25.30;5.40;;;6.00;99.90;;;5.92;100.00;100586.75;5021968;28;20242;-83
2022/11/03 00:31:43;;;;;;;20.00;4.35;;;5.90;99.90;;;5.93;100.00;100591.16;5019473;28;20227;-85
2022/11/03 00:34:11;;;;;;;21.77;4.40;;;5.80;99.90;;;6.05;100.00;100598.50;5026809;28;20226;-85
2022/11/03 00:36:42;;;;;;;27.98;6.03;;;6.00;99.90;;;6.15;100.00;100591.78;5023205;28;20238;-83
2022/11/03 00:39:10;;;;;;;19.80;4.13;;;6.00;99.90;;;6.25;100.00;100599.09;5023807;28;20289;-85
2022/11/03 00:41:38;;;;;;;26.02;5.68;;;6.20;99.90;;;6.19;100.00;100597.16;5021068;28;20278;-83
2022/11/03 00:44:05;;;;;;;20.08;4.13;;;6.20;99.90;;;6.20;100.00;100600.69;5028355;28;20226;-85
2022/11/03 00:46:36;;;;;;;16.70;3.80;;;6.20;99.90;;;6.14;100.00;100592.63;5036839;28;20318;-85
2022/11/03 00:49:04;;;;;;;16.60;3.67;;;6.10;99.90;;;6.06;100.00;100589.78;5029716;28;20226;-85
2022/11/03 00:51:33;;;;;;;19.73;4.35;;;6.00;99.90;;;6.13;100.00;100597.00;5031353;28;20285;-84
2022/11/03 00:54:03;;;;;;;20.05;4.50;;;6.10;99.90;;;6.15;100.00;100600.56;5021929;28;20312;-83
2022/11/03 00:56:41;;;;;;;21.30;4.80;;;6.10;99.90;;;6.20;100.00;100605.94;5019935;28;20239;-84
2022/11/03 00:59:09;;;;;;;23.30;4.85;;;6.10;99.90;;;6.25;100.00;100607.84;5001871;28;20281;-84
2022/11/03 01:01:40;;;;;;;26.67;5.65;;;6.10;99.90;;;6.21;100.00;100600.72;5021937;28;20231;-85
2022/11/03 01:07:04;;;;;;;19.48;4.35;;;6.10;99.90;;;6.21;100.00;100599.84;5021382;28;20309;-84
2022/11/03 01:09:35;;;;;;;18.05;4.13;;;6.20;99.90;;;6.14;100.00;100593.53;5025008;28;20246;-84
2022/11/03 01:12:05;;;;;;;19.98;4.63;;;6.10;99.90;;;6.15;100.00;100599.66;5024799;28;20250;-84
2022/11/03 01:14:40;;;;;;;20.05;4.43;;;6.10;99.90;;;6.14;100.00;100601.41;5025231;28;20310;-84
2022/11/03 01:17:21;;;;;;;20.40;4.90;;;6.10;99.90;;;5.99;100.00;100601.84;5024233;28;20695;-84
2022/11/03 01:19:48;;;;;;;14.95;3.75;;;6.00;99.90;;;5.91;100.00;100598.09;5025520;28;20251;-85
2022/11/03 01:22:17;;;;;;;17.88;4.00;;;5.90;99.90;;;5.98;100.00;100592.19;5025663;28;20251;-84
2022/11/03 01:24:44;;;;;;;19.88;4.47;;;5.90;99.90;;;6.07;100.00;100596.81;5009865;28;20758;-84
2022/11/03 01:27:18;;;;;;;24.70;5.38;;;6.00;99.90;;;6.17;100.00;100603.22;5026200;28;20227;-83
2022/11/03 01:29:45;;;;;;;20.63;4.57;;;6.10;99.90;;;6.17;100.00;100611.09;5028803;28;20324;-83
2022/11/03 01:32:13;;;;;;;25.70;5.57;;;6.10;99.90;;;6.10;100.00;100602.16;5024564;28;20246;-84
2022/11/03 01:34:40;;;;;;;25.92;5.78;;;6.10;99.90;;;6.01;100.00;100600.16;5008989;28;20293;-84
2022/11/03 01:37:07;;;;;;;26.83;5.72;;;6.00;99.90;;;5.92;100.00;100586.75;5023428;28;20736;-84
2022/11/03 01:39:34;;;;;;;21.75;4.72;;;5.90;99.90;;;5.89;100.00;100578.78;5024628;28;20262;-85
2022/11/03 01:42:01;;;;;;;19.25;4.57;;;5.90;99.90;;;5.93;100.00;100585.91;5027898;28;20223;-83
2022/11/03 01:44:40;;;;;;;20.95;4.43;;;5.90;99.90;;;5.94;100.00;100574.56;5024850;28;20231;-83
2022/11/03 01:47:23;;;;;;;22.67;4.95;;;5.90;99.90;;;5.78;100.00;100570.53;5020780;28;20318;-84
2022/11/03 01:49:56;;;;;;;23.27;5.28;;;5.80;99.90;;;5.87;100.00;100577.81;5021024;28;20363;-84
2022/11/03 01:52:32;;;;;;;16.02;3.53;;;5.80;99.90;;;5.97;100.00;100579.00;5011123;28;20254;-84
2022/11/03 01:55:21;;;;;;;18.95;4.35;;;5.90;99.90;;;5.98;100.00;100588.66;5012099;28;20218;-84
2022/11/03 01:58:03;;;;;;;25.10;5.40;;;5.90;99.90;;;6.02;100.00;100586.16;5006041;28;20305;-85
2022/11/03 02:00:30;;;;;;;22.42;4.72;;;6.00;99.90;;;6.06;100.00;100593.28;5007487;28;20688;-84
2022/11/03 02:02:58;;;;;;;21.48;4.68;;;6.00;99.90;;;6.04;100.00;100580.97;5004148;28;20625;-84
2022/11/03 02:05:27;;;;;;;21.02;4.65;;;6.00;99.90;;;5.97;100.00;100573.75;5003041;28;20255;-84
2022/11/03 02:08:18;;;;;;;20.48;4.40;;;5.90;99.90;;;5.91;100.00;100570.94;5003999;28;20227;-83
2022/11/03 02:10:49;;;;;;;26.00;5.40;;;5.90;99.90;;;5.84;100.00;100572.47;4988339;28;20683;-83
2022/11/03 02:13:45;;;;;;;24.55;5.30;;;5.80;99.90;;;5.70;100.00;100552.78;5004138;28;20310;-84
2022/11/03 02:16:13;;;;;;;17.42;3.88;;;5.70;99.90;;;5.68;100.00;100547.50;4995719;28;20250;-84
2022/11/03 02:18:41;;;;;;;21.95;4.75;;;5.70;99.90;;;5.72;100.00;100551.09;5009011;28;20231;-84
2022/11/03 02:21:40;;;;;;;21.17;4.70;;;5.70;99.90;;;5.67;100.00;100553.59;5002736;28;20634;-84
2022/11/03 02:24:26;;;;;;;19.35;4.47;;;5.60;99.90;;;5.65;100.00;100552.66;5019675;28;20291;-84
2022/11/03 02:26:55;;;;;;;18.75;4.10;;;5.60;99.90;;;5.55;100.00;100542.72;5022754;28;20317;-84
2022/11/03 02:29:22;;;;;;;23.85;5.30;;;5.50;99.90;;;5.49;100.00;100536.41;5004700;28;20235;-85
2022/11/03 02:32:17;;;;;;;19.75;4.28;;;5.50;99.90;;;5.65;100.00;100554.38;5023125;28;20249;-83
2022/11/03 02:34:59;;;;;;;26.52;5.85;;;5.50;99.90;;;5.62;100.00;100549.03;5024077;28;20544;-84
2022/11/03 02:37:32;;;;;;;18.88;4.22;;;5.60;99.90;;;5.63;100.00;100542.97;5020696;28;20304;-85
2022/11/03 02:40:17;;;;;;;21.98;4.95;;;5.60;99.90;;;5.68;100.00;100546.59;5008240;28;20342;-84
2022/11/03 02:42:50;;;;;;;20.50;4.60;;;6.30;99.90;;;5.60;100.00;100541.13;5006052;28;20254;-83
2022/11/03 02:45:20;;;;;;;26.08;5.68;;;5.60;99.90;;;5.65;100.00;100541.25;5001224;28;20294;-83
2022/11/03 02:47:49;;;;;;;22.73;5.07;;;5.60;99.90;;;5.66;100.00;100543.06;5000045;28;20247;-84
2022/11/03 02:50:18;;;;;;;23.98;5.30;;;5.60;99.90;;;5.59;100.00;100539.34;5004166;28;20243;-84
2022/11/03 02:52:47;;;;;;;22.15;4.93;;;5.60;99.90;;;5.54;100.00;100537.44;5022893;28;20223;-83
2022/11/03 02:55:33;;;;;;;21.98;4.97;;;5.50;99.90;;;5.63;100.00;100527.22;5018483;28;20235;-84
2022/11/03 02:58:27;;;;;;;16.33;4.47;;;5.50;99.90;;;5.67;100.00;100531.72;5023334;28;20615;-84
2022/11/03 03:01:26;;;;;;;14.68;3.33;;;5.60;99.90;;;5.64;100.00;100526.38;5023491;28;20626;-84
2022/11/03 03:03:59;;;;;;;17.48;4.20;;;5.60;99.90;;;5.64;100.00;100524.63;5004928;28;20262;-84
2022/11/03 03:06:48;;;;;;;14.32;3.35;;;5.60;99.90;;;5.60;100.00;100525.38;5006607;28;20314;-84
2022/11/03 03:09:21;;;;;;;21.77;4.88;;;5.50;99.90;;;5.51;100.00;100512.00;5021645;28;20561;-83
2022/11/03 03:11:52;;;;;;;24.27;5.63;;;5.50;99.90;;;5.56;100.00;100506.88;5017580;28;20246;-84
2022/11/03 03:14:30;;;;;;;16.05;3.88;;;5.50;99.90;;;5.60;100.00;100509.66;5018100;28;20264;-85
2022/11/03 03:17:13;;;;;;;18.40;4.13;;;5.50;99.90;;;5.60;100.00;100504.41;5004742;28;20322;-83
2022/11/03 03:20:27;;;;;;;20.73;4.80;;;5.60;99.90;;;5.56;100.00;100502.53;5003278;28;20321;-85
2022/11/03 03:23:05;;;;;;;17.45;3.97;;;5.50;99.90;;;5.54;100.00;100498.97;5025093;28;20269;-83
2022/11/03 03:25:54;;;;;;;17.45;3.90;;;5.50;99.90;;;5.47;100.00;100491.75;5006305;28;20234;-85
2022/11/03 03:28:40;;;;;;;17.05;3.92;;;5.50;99.90;;;5.40;100.00;100489.78;5007522;28;20788;-84
2022/11/03 03:31:12;;;;;;;20.67;4.80;;;5.40;99.90;;;5.37;100.00;100485.34;5002867;28;20258;-84
2022/11/03 03:33:41;;;;;;;21.40;5.00;;;5.30;99.90;;;5.45;100.00;100489.09;5021372;28;20660;-83
2022/11/03 03:36:17;;;;;;;20.88;5.18;;;5.40;99.90;;;5.44;100.00;100492.56;5004436;28;20242;-84
2022/11/03 03:38:55;;;;;;;21.90;5.15;;;5.40;99.90;;;5.39;100.00;100493.25;5008982;28;20763;-84
2022/11/03 03:41:25;;;;;;;16.77;4.07;;;5.40;99.90;;;5.41;100.00;100492.47;5004355;28;20313;-84
2022/11/03 03:43:56;;;;;;;18.63;4.38;;;5.40;99.90;;;5.46;100.00;100490.88;5004418;28;20288;-83
2022/11/03 03:46:32;;;;;;;18.80;4.43;;;5.40;99.90;;;5.49;100.00;100494.44;5021333;28;20257;-84
2022/11/03 03:49:00;;;;;;;18.98;4.40;;;5.40;99.90;;;5.52;100.00;100494.53;5005091;28;20306;-83
2022/11/03 03:51:28;;;;;;;16.80;3.95;;;5.50;99.90;;;5.49;100.00;100491.81;5024939;28;20369;-84
2022/11/03 03:53:55;;;;;;;15.02;3.67;;;5.50;99.90;;;5.43;100.00;100489.88;5003979;28;20247;-84
2022/11/03 03:56:35;;;;;;;19.45;4.57;;;5.40;99.90;;;5.41;100.00;100487.22;5015121;28;20295;-84
2022/11/03 03:59:02;;;;;;;18.92;4.53;;;5.40;99.90;;;5.41;100.00;100484.59;4994922;28;20223;-83
2022/11/03 04:01:29;;;;;;;18.80;4.38;;;5.40;99.90;;;5.47;100.00;100482.16;5022174;28;20258;-84
2022/11/03 04:03:56;;;;;;;17.42;4.10;;;5.40;99.90;;;5.46;100.00;100480.38;5023182;28;20300;-84
2022/11/03 04:06:23;;;;;;;15.98;3.83;;;5.40;99.90;;;5.47;100.00;100476.91;5023527;28;20293;-84
2022/11/03 04:08:50;;;;;;;17.58;4.22;;;5.40;99.90;;;5.41;100.00;100474.09;5021165;28;20234;-84
2022/11/03 04:22:21;;;;;;;20.70;4.78;;;5.30;99.90;;;5.32;100.00;100467.69;5039478;28;20239;-83
2022/11/03 04:24:50;;;;;;;18.42;4.38;;;5.30;99.90;;;5.33;100.00;100469.47;5025565;28;20318;-83
2022/11/03 04:27:33;;;;;;;21.75;5.00;;;5.30;99.90;;;5.34;100.00;100463.38;5023204;28;20318;-83
2022/11/03 04:30:23;;;;;;;20.02;4.63;;;5.30;99.90;;;5.38;100.00;100460.91;5026793;28;20288;-83
2022/11/03 04:32:52;;;;;;;17.02;4.05;;;5.30;99.90;;;5.34;100.00;100464.28;5042741;28;20234;-83
2022/11/03 04:35:23;;;;;;;18.30;4.22;;;5.30;99.90;;;5.29;100.00;100462.34;5023266;28;20247;-84
2022/11/03 04:37:58;;;;;;;14.60;3.50;;;5.30;99.90;;;5.26;100.00;100459.66;5027565;28;20321;-83
2022/11/03 04:40:27;;;;;;;21.05;4.93;;;5.30;99.90;;;5.22;100.00;100463.00;5008739;28;20296;-83
2022/11/03 04:42:54;;;;;;;17.88;4.07;;;5.20;99.90;;;5.22;100.00;100461.28;5038699;28;20227;-84
2022/11/03 04:45:37;;;;;;;18.73;4.50;;;5.20;99.90;;;5.22;100.00;100458.66;5051226;28;20238;-84
2022/11/03 04:48:22;;;;;;;16.95;3.85;;;5.20;99.90;;;5.23;100.00;100456.94;5051398;28;20307;-84
2022/11/03 04:50:53;;;;;;;15.85;3.75;;;5.30;99.90;;;5.20;100.00;100455.09;5031638;28;20254;-84
2022/11/03 04:53:22;;;;;;;16.55;3.85;;;5.20;99.90;;;5.08;100.00;100447.72;5025711;28;20660;-84
2022/11/03 04:55:53;;;;;;;18.70;4.38;;;5.10;99.90;;;5.06;100.00;100446.78;5030688;28;20684;-83
2022/11/03 04:58:26;;;;;;;16.73;3.85;;;5.10;99.90;;;5.06;100.00;100443.25;4999726;28;20224;-83
2022/11/03 05:00:58;;;;;;;17.23;4.05;;;5.10;99.90;;;5.10;100.00;100442.50;4990946;28;20307;-83
2022/11/03 05:03:33;;;;;;;16.95;3.90;;;5.10;99.90;;;5.08;100.00;100433.72;5011377;28;20230;-84
2022/11/03 05:06:29;;;;;;;23.02;5.28;;;5.00;99.90;;;5.06;100.00;100432.78;5028891;28;20258;-83
2022/11/03 05:09:16;;;;;;;18.08;4.30;;;5.00;99.90;;;4.85;100.00;100422.50;5012257;28;20261;-85
2022/11/03 05:11:45;;;;;;;26.02;5.95;;;5.00;99.90;;;4.89;100.00;100424.38;5004688;28;20235;-82
2022/11/03 05:14:19;;;;;;;26.73;6.03;;;4.90;99.90;;;5.00;100.00;100427.34;5003867;28;20250;-82
2022/11/03 05:16:48;;;;;;;33.58;7.60;;;5.00;99.90;;;5.05;100.00;100429.28;5008638;28;20235;-82
2022/11/03 05:19:19;;;;;;;18.33;4.55;;;5.00;99.90;;;5.12;100.00;100438.22;5003829;28;20248;-82
2022/11/03 05:21:48;;;;;;;33.67;7.32;;;5.10;99.90;;;5.14;100.00;100434.78;5025358;28;20330;-82
2022/11/03 05:24:20;;;;;;;19.90;4.25;;;5.10;99.90;;;5.18;100.00;100425.28;5000392;28;20845;-82
2022/11/03 05:26:48;;;;;;;28.77;6.10;;;5.10;99.90;;;5.18;100.00;100424.41;5007212;28;20691;-81
2022/11/03 05:29:20;;;;;;;14.05;3.20;;;5.20;99.90;;;5.18;100.00;100420.06;5010976;28;20268;-82
2022/11/03 05:31:50;;;;;;;21.35;4.63;;;5.30;99.90;;;5.27;100.00;100430.84;4999430;28;20242;-82
2022/11/03 05:34:29;;;;;;;29.38;7.15;;;5.20;99.90;;;5.26;100.00;100415.06;5011690;28;20250;-82
2022/11/03 05:37:25;;;;;;;19.25;4.40;;;5.20;99.90;;;5.28;100.00;100400.28;5029439;28;20293;-82
2022/11/03 05:40:00;;;;;;;17.80;4.10;;;5.20;99.90;;;5.27;100.00;100393.25;5021471;28;20230;-83
2022/11/03 05:42:41;;;;;;;14.75;3.33;;;5.20;99.90;;;5.31;100.00;100393.38;5010951;28;20266;-81
2022/11/03 05:45:22;;;;;;;22.48;5.10;;;5.30;99.90;;;5.32;100.00;100396.91;5012433;28;20247;-82
2022/11/03 05:47:53;;;;;;;18.58;4.28;;;5.30;99.90;;;5.17;100.00;100375.44;5004353;28;20274;-82
2022/11/03 05:50:26;;;;;;;13.73;3.20;;;5.20;99.90;;;4.97;100.00;100373.09;5032036;28;20305;-82
2022/11/03 05:53:07;;;;;;;14.52;3.60;;;5.10;99.90;;;4.96;100.00;100368.72;5041006;28;20223;-82
2022/11/03 05:55:36;;;;;;;17.33;3.92;;;5.00;99.90;;;4.92;100.00;100363.34;5008872;28;20367;-82
2022/11/03 05:58:29;;;;;;;17.85;4.20;;;5.00;99.90;;;4.87;100.00;100370.16;5006513;28;20282;-82
2022/11/03 06:00:59;;;;;;;11.98;2.90;;;4.90;99.90;;;4.88;100.00;100364.97;5013086;28;20226;-82
2022/11/03 06:03:29;;;;;;;15.65;3.60;;;4.80;99.90;;;5.02;100.00;100381.09;5028775;28;20226;-82
2022/11/03 06:05:57;;;;;;;15.95;3.70;;;4.90;99.90;;;5.07;100.00;100380.41;5008832;28;20254;-82
2022/11/03 06:08:33;;;;;;;16.95;3.90;;;4.90;99.90;;;5.12;100.00;100365.72;5022962;28;20290;-82
2022/11/03 06:11:03;;;;;;;22.00;4.93;;;5.10;99.90;;;5.13;100.00;100370.09;5006640;28;20231;-84
2022/11/03 06:13:36;;;;;;;15.63;3.65;;;5.20;99.90;;;5.06;100.00;100377.75;5036717;28;20245;-84
2022/11/03 06:16:27;;;;;;;18.73;4.25;;;5.00;99.90;;;5.07;100.00;100374.28;5050520;28;20292;-83
2022/11/03 06:18:54;;;;;;;18.65;4.30;;;5.00;99.90;;;5.06;100.00;100377.75;5005859;28;20252;-83
2022/11/03 06:21:25;;;;;;;21.20;4.70;;;5.00;99.90;;;5.01;100.00;100363.59;5014843;28;20227;-84
2022/11/03 06:23:54;;;;;;;17.25;4.00;;;5.00;99.90;;;5.01;100.00;100376.72;5030814;28;20292;-83
2022/11/03 06:26:26;;;;;;;16.63;3.88;;;4.90;99.90;;;4.90;100.00;100371.16;5022128;28;20239;-83
2022/11/03 06:28:54;;;;;;;18.30;4.20;;;4.90;99.90;;;4.91;100.00;100370.31;5028287;28;20254;-83
2022/11/03 06:31:23;;;;;;;21.60;5.20;;;4.90;99.90;;;5.03;100.00;100368.06;5009065;28;20238;-83
2022/11/03 06:33:52;;;;;;;15.80;3.80;;;5.00;99.90;;;5.10;100.00;100371.75;5004879;28;20242;-83
2022/11/03 06:36:26;;;;;;;23.42;5.15;;;5.00;99.90;;;5.14;100.00;100365.75;5028783;28;20234;-83
2022/11/03 06:39:03;;;;;;;16.85;4.00;;;5.10;99.90;;;5.21;100.00;100375.59;5032949;28;20590;-83
2022/11/03 06:41:35;;;;;;;16.38;3.92;;;5.20;99.90;;;5.25;100.00;100380.09;5034264;28;20230;-84
2022/11/03 06:44:22;;;;;;;15.65;3.72;;;5.20;99.90;;;5.36;100.00;100378.69;4992446;28;20303;-83
2022/11/03 06:46:50;;;;;;;21.77;6.00;;;5.30;99.90;;;5.44;100.00;100381.50;5004640;28;20321;-84
2022/11/03 06:49:34;;;;;;;19.77;4.50;;;5.40;99.90;;;5.44;100.00;100369.28;5031658;28;20317;-83
2022/11/03 06:52:26;;;;;;;17.08;4.03;;;5.40;99.90;;;5.44;100.00;100368.41;5009159;28;20305;-83
2022/11/03 06:55:00;;;;;;;18.48;4.32;;;5.40;99.90;;;5.41;100.00;100370.94;5007715;28;20261;-83
2022/11/03 06:57:34;;;;;;;21.33;5.10;;;5.40;99.90;;;5.49;100.00;100376.41;5021218;28;20273;-84
2022/11/03 07:00:01;;;;;;;15.77;3.85;;;5.40;99.90;;;5.56;100.00;100388.84;4991722;28;20247;-84
2022/11/03 07:03:12;;;;;;;17.08;4.10;;;5.50;99.90;;;5.61;100.00;100395.09;5030390;28;20226;-83
2022/11/03 07:05:40;;;;;;;18.83;4.47;;;5.60;99.90;;;5.66;100.00;100401.38;5030322;28;20258;-83
2022/11/03 07:08:30;;;;;;;17.10;4.20;;;5.60;99.90;;;5.66;100.00;100393.50;5010552;28;20311;-83
2022/11/03 07:11:15;;;;;;;17.58;4.13;;;5.60;99.90;;;5.74;100.00;100405.09;5028879;28;20230;-83
2022/11/03 07:13:42;;;;;;;18.60;4.35;;;5.70;99.90;;;5.79;100.00;100404.38;5036507;28;20242;-83
2022/11/03 07:16:25;;;;;;;16.52;3.92;;;5.70;99.90;;;5.95;100.00;100418.84;5027344;28;20247;-83
2022/11/03 07:18:52;;;;;;;17.10;4.07;;;5.80;99.90;;;5.99;100.00;100417.19;5008158;28;20223;-83
2022/11/03 07:21:34;;;;;;;19.38;4.40;;;5.90;99.90;;;6.03;100.00;100421.69;5048153;28;20222;-83
2022/11/03 07:24:20;;;;;;;16.73;4.15;;;5.90;99.90;;;6.12;100.00;100423.66;5031338;28;20325;-83
2022/11/03 07:26:53;;;;;;;25.65;6.00;;;6.00;99.90;;;6.18;100.00;100434.31;4999229;28;20317;-84
2022/11/03 07:29:24;;;;;;;17.60;4.15;;;6.10;99.90;;;6.17;100.00;100420.31;5001460;28;20243;-84
2022/11/03 07:31:56;;;;;;;17.27;4.05;;;6.10;99.90;;;6.31;100.00;100426.81;5013152;28;20316;-81
2022/11/03 07:34:31;;;;;;;18.42;4.40;;;6.20;99.90;;;6.36;100.00;100421.66;5008385;28;20232;-84
2022/11/03 07:36:59;;;;;;;16.65;4.03;;;6.30;99.90;;;6.40;100.00;100407.75;5030340;28;20309;-83
2022/11/03 07:39:35;;;;;;;15.25;3.75;;;6.30;99.90;;;6.43;100.00;100399.97;4996576;28;20266;-83
2022/11/03 07:42:19;;;;;;;18.92;4.50;;;6.40;99.90;;;6.50;100.00;100396.66;5002949;28;20267;-84
2022/11/03 07:44:47;;;;;;;18.33;4.50;;;6.40;99.90;;;6.52;100.00;100409.84;5006372;28;20223;-83
2022/11/03 07:47:25;;;;;;;18.40;4.40;;;6.50;99.90;;;6.57;100.00;100402.97;5022403;28;20254;-83
2022/11/03 07:49:54;;;;;;;16.17;4.03;;;6.50;99.90;;;6.67;100.00;100405.84;4995816;28;20223;-83
2022/11/03 07:52:25;;;;;;;16.15;4.03;;;6.60;99.90;;;6.71;100.00;100406.81;5010944;28;20255;-83
2022/11/03 07:54:56;;;;;;;17.55;4.28;;;6.60;99.90;;;6.78;100.00;100411.38;5013214;28;20694;-83
2022/11/03 07:57:31;;;;;;;17.42;4.22;;;6.70;99.90;;;6.79;100.00;100396.47;5003641;28;20261;-83
2022/11/03 08:00:08;;;;;;;14.57;3.67;;;6.70;99.90;;;6.83;100.00;100396.59;5002760;28;20294;-83
2022/11/03 08:02:48;;;;;;;20.45;4.78;;;6.80;99.90;;;6.94;100.00;100396.84;5033934;28;20229;-83
2022/11/03 08:05:15;;;;;;;22.70;5.28;;;6.90;99.90;;;6.97;100.00;100392.53;4997962;28;20257;-83
2022/11/03 08:07:42;;;;;;;20.27;4.75;;;6.90;99.90;;;6.98;100.00;100383.78;5026902;28;20240;-83
2022/11/03 08:10:09;;;;;;;18.83;4.40;;;6.90;99.90;;;7.05;100.00;100382.19;5042466;28;20230;-83
2022/11/03 08:12:36;;;;;;;19.02;4.57;;;7.00;99.90;;;7.04;100.00;100375.16;5031618;28;20227;-83
2022/11/03 08:15:04;;;;;;;20.50;4.97;;;7.00;99.90;;;7.08;100.00;100382.25;5023235;28;20238;-82
2022/11/03 08:17:32;;;;;;;18.98;4.70;;;7.00;99.90;;;7.18;100.00;100393.88;5027363;28;20262;-83
2022/11/03 08:19:59;;;;;;;15.10;3.85;;;7.10;99.90;;;7.25;100.00;100385.25;5032371;28;20258;-83
2022/11/03 08:22:26;;;;;;;19.45;4.65;;;7.20;99.90;;;7.28;100.00;100388.84;5023728;28;20233;-82
2022/11/03 08:24:53;;;;;;;17.23;4.25;;;7.20;99.90;;;7.38;100.00;100395.19;5029958;28;20293;-83
2022/11/03 08:27:20;;;;;;;14.88;3.95;;;7.30;99.90;;;7.48;100.00;100399.78;5013320;28;20227;-83
2022/11/03 08:29:47;;;;;;;18.35;4.50;;;7.40;99.90;;;7.57;100.00;100394.72;5024449;28;20234;-82
2022/11/03 08:32:15;;;;;;;19.67;4.57;;;7.50;99.90;;;7.61;100.00;100388.66;5035418;28;20222;-83
2022/11/03 08:34:42;;;;;;;20.95;4.88;;;7.50;99.90;;;7.65;100.00;100389.59;5031055;28;20270;-82
2022/11/03 08:37:12;;;;;;;26.42;6.13;;;7.50;99.90;;;7.72;100.00;100396.75;5030090;28;20720;-82
2022/11/03 08:39:42;;;;;;;24.52;5.50;;;7.60;99.90;;;7.84;100.00;100393.50;5032094;28;20223;-83
2022/11/03 08:42:09;;;;;;;22.63;5.10;;;7.70;99.90;;;7.86;100.00;100390.06;5028673;28;20304;-83
2022/11/03 08:44:36;;;;;;;20.65;4.88;;;7.80;99.90;;;7.89;100.00;100386.59;5040081;28;20238;-83
2022/11/03 08:47:03;;;;;;;13.75;3.55;;;7.90;99.90;;;7.92;100.00;100382.25;5022570;28;20235;-83
2022/11/03 08:49:30;;;;;;;14.40;3.80;;;7.80;99.90;;;8.02;100.00;100378.94;5018380;28;20236;-83
2022/11/03 08:51:57;;;;;;;11.85;3.05;;;8.00;99.90;;;8.20;100.00;100383.66;5028792;28;20312;-83
2022/11/03 08:54:25;;;;;;;13.70;3.50;;;8.10;99.90;;;8.29;100.00;100382.94;5039071;28;20230;-83
2022/11/03 08:56:52;;;;;;;16.65;4.35;;;8.20;99.90;;;8.20;100.00;100365.22;5022610;28;20301;-82
2022/11/03 08:59:19;;;;;;;22.05;4.90;;;8.20;99.90;;;8.32;100.00;100377.72;5027216;28;20307;-83
2022/11/03 09:01:47;;;;;;;18.63;4.40;;;8.20;99.90;;;8.41;100.00;100390.19;5035404;28;20285;-82
2022/11/03 09:04:14;;;;;;;17.35;4.63;;;8.30;99.90;;;8.46;100.00;100378.88;5043007;28;20294;-83
2022/11/03 09:06:41;;;;;;;24.73;5.90;;;8.40;99.90;;;8.48;100.00;100368.34;5009016;28;20304;-83
2022/11/03 09:09:08;;;;;;;19.73;4.55;;;8.40;99.90;;;8.60;100.00;100373.81;5016900;28;20276;-83
2022/11/03 09:11:55;;;;;;;16.38;4.13;;;8.50;99.90;;;8.73;100.00;100377.53;5014519;28;20246;-82
2022/11/03 09:14:22;;;;;;;17.08;4.15;;;8.60;99.90;;;8.65;100.00;100367.75;5023749;28;20285;-83
2022/11/03 09:16:49;;;;;;;18.30;4.60;;;8.60;99.90;;;8.65;100.00;100365.13;5041856;28;20238;-81
2022/11/03 09:19:16;;;;;;;18.15;4.43;;;8.60;99.90;;;8.72;100.00;100354.66;5026058;28;20281;-82
2022/11/03 09:21:44;;;;;;;14.70;3.88;;;8.60;99.90;;;8.74;100.00;100343.28;5031407;28;20301;-82
2022/11/03 09:24:11;;;;;;;16.65;4.13;;;8.70;99.90;;;8.71;100.00;100327.41;5036386;28;20245;-83
2022/11/03 09:26:38;;;;;;;15.23;3.78;;;8.70;99.90;;;8.84;100.00;100333.75;5016633;28;20263;-83
2022/11/03 09:29:05;;;;;;;15.70;3.92;;;8.70;99.90;;;8.95;100.00;100340.06;5042443;28;20312;-83
2022/11/03 09:31:32;;;;;;;15.65;3.92;;;8.80;99.90;;;8.94;100.00;100330.38;5014173;28;20326;-83
2022/11/03 09:33:59;;;;;;;14.73;3.78;;;8.90;99.90;;;8.90;100.00;100321.53;5004749;28;20227;-82
2022/11/03 09:36:26;;;;;;;14.48;3.60;;;8.80;99.90;;;8.95;100.00;100308.41;5002747;28;20599;-82
2022/11/03 09:38:53;;;;;;;14.77;3.78;;;8.90;99.90;;;9.07;100.00;100302.41;5027681;28;20302;-82
2022/11/03 09:41:20;;;;;;;18.50;4.53;;;9.00;99.90;;;9.19;100.00;100318.44;5027453;28;20735;-82
2022/11/03 09:44:01;;;;;;;16.40;4.13;;;9.00;99.90;;;9.12;100.00;100304.28;5041812;28;20308;-82
2022/11/03 09:46:29;;;;;;;11.05;3.03;;;9.00;99.90;;;9.20;100.00;100305.25;5016153;28;20265;-83
2022/11/03 09:48:57;;;;;;;14.60;3.72;;;9.10;99.90;;;9.12;100.00;100290.19;5040768;28;20234;-83
2022/11/03 09:51:26;;;;;;;18.73;4.70;;;9.10;99.90;;;9.22;100.00;100284.16;5011709;28;20297;-83
2022/11/03 09:53:57;;;;;;;14.50;3.78;;;9.10;99.90;;;9.37;100.00;100283.47;5042842;28;20248;-82
2022/11/03 09:56:25;;;;;;;16.05;4.00;;;9.30;99.90;;;9.37;100.00;100278.19;5013120;28;20227;-83
2022/11/03 09:58:53;;;;;;;14.10;3.58;;;9.30;99.90;;;9.38;100.00;100282.59;5015234;28;20231;-83
2022/11/03 10:01:21;;;;;;;16.63;4.10;;;9.30;99.90;;;9.50;100.00;100293.28;5024995;28;20238;-82
2022/11/03 10:03:49;;;;;;;16.35;4.07;;;9.40;99.90;;;9.52;100.00;100279.25;5014254;28;20230;-82
2022/11/03 10:06:16;;;;;;;17.30;4.30;;;9.40;99.90;;;9.69;100.00;100275.88;5039449;28;20300;-82
2022/11/03 10:08:46;;;;;;;20.73;5.00;;;9.60;99.90;;;9.94;100.00;100280.53;5031487;28;20308;-84
2022/11/03 10:11:13;;;;;;;18.13;4.88;;;9.70;99.90;;;10.06;100.00;100280.63;5014212;28;20224;-83
2022/11/03 10:13:47;;;;;;;18.40;4.47;;;9.90;99.90;;;10.23;100.00;100272.88;5020194;28;20239;-83
2022/11/03 10:16:19;;;;;;;18.63;4.55;;;10.10;99.90;;;10.14;100.00;100244.59;5018791;28;20285;-83
2022/11/03 10:18:46;;;;;;;22.25;5.20;;;10.00;99.90;;;10.21;100.00;100243.81;5009925;28;20290;-82
2022/11/03 10:21:29;;;;;;;18.50;4.40;;;10.10;99.90;;;10.24;100.00;100232.38;5014637;28;20223;-83
2022/11/03 10:23:56;;;;;;;15.13;3.90;;;10.10;99.90;;;10.39;100.00;100227.19;5037929;28;20215;-82
2022/11/03 10:26:23;;;;;;;21.88;5.53;;;10.20;99.90;;;10.56;100.00;100241.41;5028478;28;20230;-82
2022/11/03 10:29:02;;;;;;;21.85;5.25;;;10.40;99.90;;;10.48;100.00;100216.69;5031806;28;20695;-83
2022/11/03 10:31:40;;;;;;;15.80;4.15;;;10.40;99.90;;;10.47;100.00;100209.63;5031815;28;20238;-84
2022/11/03 10:34:34;;;;;;;19.90;5.10;;;10.40;99.90;;;10.62;100.00;100216.78;5036926;28;20225;-83
2022/11/03 10:37:24;;;;;;;14.35;3.78;;;10.40;99.90;;;10.67;100.00;100204.47;5007637;28;20253;-80
2022/11/03 10:39:54;;;;;;;16.63;4.28;;;10.60;99.90;;;10.54;100.00;100187.66;5045336;28;20265;-84
2022/11/03 10:42:25;;;;;;;14.25;3.78;;;10.50;99.90;;;10.60;100.00;100181.50;5022485;28;20335;-84
2022/11/03 10:45:20;;;;;;;15.65;4.10;;;10.50;99.90;;;10.59;100.00;100171.81;5013950;28;20223;-87
2022/11/03 10:48:01;;;;;;;18.40;4.68;;;10.50;99.90;;;10.65;100.00;100163.00;5032308;28;20231;-84
2022/11/03 10:50:29;;;;;;;13.40;3.63;;;10.50;99.90;;;10.68;100.00;100155.09;5023300;28;20611;-84
2022/11/03 10:52:57;;;;;;;11.45;3.17;;;10.60;99.90;;;10.68;100.00;100152.44;5025322;28;20231;-84